sensor_id;sensor_type;location;lat;lon;timestamp;temperature;humidity
53314;DHT22;39202;51.468;7.146;2022-07-04T00:00:42;31.80;36.40
53314;DHT22;39202;51.468;7.146;2022-07-04T00:05:43;31.80;37.00
53314;DHT22;39202;51.468;7.146;2022-07-04T00:10:45;31.70;36.30
53314;DHT22;39202;51.468;7.146;2022-07-04T00:15:48;31.70;36.40
53314;DHT22;39202;51.468;7.146;2022-07-04T00:20:50;31.70;36.40
53314;DHT22;39202;51.468;7.146;2022-07-04T00:25:53;31.70;36.40
53314;DHT22;39202;51.468;7.146;2022-07-04T00:30:56;31.70;36.40
53314;DHT22;39202;51.468;7.146;2022-07-04T00:35:58;31.70;36.50
53314;DHT22;39202;51.468;7.146;2022-07-04T00:41:00;31.70;36.50
53314;DHT22;39202;51.468;7.146;2022-07-04T00:46:05;31.70;36.50
53314;DHT22;39202;51.468;7.146;2022-07-04T00:51:06;31.60;36.50
53314;DHT22;39202;51.468;7.146;2022-07-04T00:56:08;31.60;36.50
53314;DHT22;39202;51.468;7.146;2022-07-04T01:01:11;31.60;36.60
53314;DHT22;39202;51.468;7.146;2022-07-04T01:06:14;31.60;36.60
53314;DHT22;39202;51.468;7.146;2022-07-04T01:11:16;31.60;36.60
53314;DHT22;39202;51.468;7.146;2022-07-04T01:16:19;31.60;36.60
53314;DHT22;39202;51.468;7.146;2022-07-04T01:21:22;31.50;36.60
53314;DHT22;39202;51.468;7.146;2022-07-04T01:26:24;31.60;36.70
53314;DHT22;39202;51.468;7.146;2022-07-04T01:31:26;31.60;36.70
53314;DHT22;39202;51.468;7.146;2022-07-04T01:36:29;31.60;36.70
53314;DHT22;39202;51.468;7.146;2022-07-04T01:41:33;31.50;36.70
53314;DHT22;39202;51.468;7.146;2022-07-04T01:46:35;31.50;36.70
53314;DHT22;39202;51.468;7.146;2022-07-04T01:51:44;31.50;36.70
53314;DHT22;39202;51.468;7.146;2022-07-04T01:56:47;31.50;36.80
53314;DHT22;39202;51.468;7.146;2022-07-04T02:01:48;31.50;36.80
53314;DHT22;39202;51.468;7.146;2022-07-04T02:06:51;31.50;36.80
53314;DHT22;39202;51.468;7.146;2022-07-04T02:11:53;31.50;36.80
53314;DHT22;39202;51.468;7.146;2022-07-04T02:17:12;31.40;36.80
53314;DHT22;39202;51.468;7.146;2022-07-04T02:22:16;31.40;36.80
53314;DHT22;39202;51.468;7.146;2022-07-04T02:27:17;31.40;36.80
53314;DHT22;39202;51.468;7.146;2022-07-04T02:32:19;31.40;36.90
53314;DHT22;39202;51.468;7.146;2022-07-04T02:37:22;31.40;36.90
53314;DHT22;39202;51.468;7.146;2022-07-04T02:42:26;31.30;36.80
53314;DHT22;39202;51.468;7.146;2022-07-04T02:47:29;31.30;36.90
53314;DHT22;39202;51.468;7.146;2022-07-04T02:52:33;31.30;36.90
53314;DHT22;39202;51.468;7.146;2022-07-04T02:57:34;31.30;36.90
53314;DHT22;39202;51.468;7.146;2022-07-04T03:02:37;31.30;36.90
53314;DHT22;39202;51.468;7.146;2022-07-04T03:07:40;31.30;37.00
53314;DHT22;39202;51.468;7.146;2022-07-04T03:12:42;31.30;37.00
53314;DHT22;39202;51.468;7.146;2022-07-04T03:17:44;31.30;37.00
53314;DHT22;39202;51.468;7.146;2022-07-04T03:22:47;31.30;37.00
53314;DHT22;39202;51.468;7.146;2022-07-04T03:27:49;31.20;37.00
53314;DHT22;39202;51.468;7.146;2022-07-04T03:32:50;31.20;37.00
53314;DHT22;39202;51.468;7.146;2022-07-04T03:37:54;31.20;37.00
53314;DHT22;39202;51.468;7.146;2022-07-04T03:42:56;31.30;37.10
53314;DHT22;39202;51.468;7.146;2022-07-04T03:47:57;31.20;37.00
53314;DHT22;39202;51.468;7.146;2022-07-04T03:53:01;31.20;37.10
53314;DHT22;39202;51.468;7.146;2022-07-04T03:58:02;31.20;37.00
53314;DHT22;39202;51.468;7.146;2022-07-04T04:03:04;31.20;37.10
53314;DHT22;39202;51.468;7.146;2022-07-04T04:08:28;31.20;37.10
53314;DHT22;39202;51.468;7.146;2022-07-04T04:13:30;31.10;37.00
53314;DHT22;39202;51.468;7.146;2022-07-04T04:18:31;31.10;37.10
53314;DHT22;39202;51.468;7.146;2022-07-04T04:23:34;31.10;37.00
53314;DHT22;39202;51.468;7.146;2022-07-04T04:28:36;31.10;37.10
53314;DHT22;39202;51.468;7.146;2022-07-04T04:33:38;31.10;37.10
53314;DHT22;39202;51.468;7.146;2022-07-04T04:38:42;31.10;37.20
53314;DHT22;39202;51.468;7.146;2022-07-04T04:43:44;30.10;36.60
53314;DHT22;39202;51.468;7.146;2022-07-04T04:48:46;31.10;37.20
53314;DHT22;39202;51.468;7.146;2022-07-04T04:53:49;31.10;37.20
53314;DHT22;39202;51.468;7.146;2022-07-04T04:58:50;31.10;37.20
53314;DHT22;39202;51.468;7.146;2022-07-04T05:03:52;31.20;37.30
53314;DHT22;39202;51.468;7.146;2022-07-04T05:08:55;31.20;37.30
53314;DHT22;39202;51.468;7.146;2022-07-04T05:13:57;31.20;37.20
53314;DHT22;39202;51.468;7.146;2022-07-04T05:18:58;31.30;37.20
53314;DHT22;39202;51.468;7.146;2022-07-04T05:24:02;31.30;37.20
53314;DHT22;39202;51.468;7.146;2022-07-04T05:29:05;31.40;37.20
53314;DHT22;39202;51.468;7.146;2022-07-04T05:34:06;31.50;37.20
53314;DHT22;39202;51.468;7.146;2022-07-04T05:39:09;31.50;37.10
53314;DHT22;39202;51.468;7.146;2022-07-04T05:44:11;31.50;37.10
53314;DHT22;39202;51.468;7.146;2022-07-04T05:49:13;31.60;37.10
53314;DHT22;39202;51.468;7.146;2022-07-04T05:54:16;31.70;37.10
53314;DHT22;39202;51.468;7.146;2022-07-04T05:59:18;31.70;37.00
53314;DHT22;39202;51.468;7.146;2022-07-04T06:04:19;31.80;37.00
53314;DHT22;39202;51.468;7.146;2022-07-04T06:09:22;31.80;37.10
53314;DHT22;39202;51.468;7.146;2022-07-04T06:14:24;31.90;37.10
53314;DHT22;39202;51.468;7.146;2022-07-04T06:19:26;31.90;36.70
53314;DHT22;39202;51.468;7.146;2022-07-04T06:24:29;31.80;36.50
53314;DHT22;39202;51.468;7.146;2022-07-04T06:29:31;31.80;36.30
53314;DHT22;39202;51.468;7.146;2022-07-04T06:34:32;31.80;36.40
53314;DHT22;39202;51.468;7.146;2022-07-04T06:39:53;31.70;36.20
53314;DHT22;39202;51.468;7.146;2022-07-04T06:44:55;31.60;35.70
53314;DHT22;39202;51.468;7.146;2022-07-04T06:49:56;31.50;35.90
53314;DHT22;39202;51.468;7.146;2022-07-04T06:54:59;31.40;36.00
53314;DHT22;39202;51.468;7.146;2022-07-04T07:00:02;31.30;36.00
53314;DHT22;39202;51.468;7.146;2022-07-04T07:05:05;31.30;36.00
53314;DHT22;39202;51.468;7.146;2022-07-04T07:10:09;31.20;35.90
53314;DHT22;39202;51.468;7.146;2022-07-04T07:15:11;31.20;35.80
53314;DHT22;39202;51.468;7.146;2022-07-04T07:20:13;31.20;35.80
53314;DHT22;39202;51.468;7.146;2022-07-04T07:25:16;31.20;35.70
53314;DHT22;39202;51.468;7.146;2022-07-04T07:30:18;31.20;35.60
53314;DHT22;39202;51.468;7.146;2022-07-04T07:35:20;31.20;35.60
53314;DHT22;39202;51.468;7.146;2022-07-04T07:40:23;31.20;35.50
53314;DHT22;39202;51.468;7.146;2022-07-04T07:45:25;31.20;35.40
53314;DHT22;39202;51.468;7.146;2022-07-04T07:50:27;31.10;45.00
53314;DHT22;39202;51.468;7.146;2022-07-04T07:55:30;31.20;35.90
53314;DHT22;39202;51.468;7.146;2022-07-04T08:00:32;31.10;35.00
53314;DHT22;39202;51.468;7.146;2022-07-04T08:05:34;31.10;35.00
53314;DHT22;39202;51.468;7.146;2022-07-04T08:10:37;31.10;34.80
53314;DHT22;39202;51.468;7.146;2022-07-04T08:15:39;31.10;34.50
53314;DHT22;39202;51.468;7.146;2022-07-04T08:20:41;31.00;34.40
53314;DHT22;39202;51.468;7.146;2022-07-04T08:25:44;31.00;34.40
53314;DHT22;39202;51.468;7.146;2022-07-04T08:30:45;30.90;34.00
53314;DHT22;39202;51.468;7.146;2022-07-04T08:35:47;30.90;34.00
53314;DHT22;39202;51.468;7.146;2022-07-04T08:40:54;30.90;33.90
53314;DHT22;39202;51.468;7.146;2022-07-04T08:45:58;30.90;33.80
53314;DHT22;39202;51.468;7.146;2022-07-04T09:31:48;31.30;72.60
53314;DHT22;39202;51.468;7.146;2022-07-04T09:36:52;31.40;73.40
53314;DHT22;39202;51.468;7.146;2022-07-04T09:41:58;31.40;72.40
53314;DHT22;39202;51.468;7.146;2022-07-04T09:47:19;31.40;72.10
53314;DHT22;39202;51.468;7.146;2022-07-04T09:52:21;31.40;71.20
53314;DHT22;39202;51.468;7.146;2022-07-04T09:57:24;31.40;71.80
53314;DHT22;39202;51.468;7.146;2022-07-04T10:02:26;31.40;71.40
53314;DHT22;39202;51.468;7.146;2022-07-04T10:07:33;31.40;71.30
53314;DHT22;39202;51.468;7.146;2022-07-04T10:12:37;31.40;71.20
53314;DHT22;39202;51.468;7.146;2022-07-04T10:17:40;31.40;71.30
53314;DHT22;39202;51.468;7.146;2022-07-04T10:22:42;31.40;71.30
53314;DHT22;39202;51.468;7.146;2022-07-04T10:27:45;31.30;70.80
53314;DHT22;39202;51.468;7.146;2022-07-04T10:32:49;31.40;70.80
53314;DHT22;39202;51.468;7.146;2022-07-04T10:38:02;31.50;70.80
53314;DHT22;39202;51.468;7.146;2022-07-04T10:49:18;31.30;69.80
53314;DHT22;39202;51.468;7.146;2022-07-04T10:54:22;31.20;70.00
53314;DHT22;39202;51.468;7.146;2022-07-04T10:59:30;31.10;70.30
53314;DHT22;39202;51.468;7.146;2022-07-04T11:04:46;31.00;70.50
53314;DHT22;39202;51.468;7.146;2022-07-04T11:15:57;30.80;32.40
53314;DHT22;39202;51.468;7.146;2022-07-04T11:21:01;30.90;32.40
53314;DHT22;39202;51.468;7.146;2022-07-04T11:26:02;30.90;32.30
53314;DHT22;39202;51.468;7.146;2022-07-04T11:31:04;30.90;32.40
53314;DHT22;39202;51.468;7.146;2022-07-04T11:36:09;30.90;32.10
53314;DHT22;39202;51.468;7.146;2022-07-04T11:41:11;30.90;31.90
53314;DHT22;39202;51.468;7.146;2022-07-04T11:51:34;31.10;31.50
53314;DHT22;39202;51.468;7.146;2022-07-04T11:56:36;30.70;31.70
53314;DHT22;39202;51.468;7.146;2022-07-04T12:01:38;30.70;31.80
53314;DHT22;39202;51.468;7.146;2022-07-04T12:06:41;30.60;31.80
53314;DHT22;39202;51.468;7.146;2022-07-04T12:11:50;30.60;31.80
53314;DHT22;39202;51.468;7.146;2022-07-04T12:17:11;30.60;31.60
53314;DHT22;39202;51.468;7.146;2022-07-04T12:22:32;30.50;31.70
53314;DHT22;39202;51.468;7.146;2022-07-04T12:27:34;30.60;31.60
53314;DHT22;39202;51.468;7.146;2022-07-04T12:32:50;30.60;31.70
53314;DHT22;39202;51.468;7.146;2022-07-04T12:38:02;30.60;31.40
53314;DHT22;39202;51.468;7.146;2022-07-04T12:43:04;30.60;31.40
53314;DHT22;39202;51.468;7.146;2022-07-04T12:48:14;30.60;31.40
53314;DHT22;39202;51.468;7.146;2022-07-04T12:53:17;30.60;31.50
53314;DHT22;39202;51.468;7.146;2022-07-04T12:58:19;30.60;31.70
53314;DHT22;39202;51.468;7.146;2022-07-04T13:03:21;30.60;31.50
53314;DHT22;39202;51.468;7.146;2022-07-04T13:08:25;30.50;31.50
53314;DHT22;39202;51.468;7.146;2022-07-04T13:13:26;30.50;31.60
53314;DHT22;39202;51.468;7.146;2022-07-04T13:18:29;30.50;31.70
53314;DHT22;39202;51.468;7.146;2022-07-04T13:23:32;30.50;31.60
53314;DHT22;39202;51.468;7.146;2022-07-04T13:28:34;30.50;31.50
53314;DHT22;39202;51.468;7.146;2022-07-04T13:33:36;30.50;31.50
53314;DHT22;39202;51.468;7.146;2022-07-04T13:38:39;30.40;31.40
53314;DHT22;39202;51.468;7.146;2022-07-04T13:43:41;30.40;31.40
53314;DHT22;39202;51.468;7.146;2022-07-04T13:48:43;30.40;31.50
53314;DHT22;39202;51.468;7.146;2022-07-04T13:53:46;30.40;31.60
53314;DHT22;39202;51.468;7.146;2022-07-04T13:58:48;30.40;31.60
53314;DHT22;39202;51.468;7.146;2022-07-04T14:03:50;30.40;31.60
53314;DHT22;39202;51.468;7.146;2022-07-04T14:08:53;30.40;31.60
53314;DHT22;39202;51.468;7.146;2022-07-04T14:13:54;30.40;31.60
53314;DHT22;39202;51.468;7.146;2022-07-04T14:18:56;30.50;31.50
53314;DHT22;39202;51.468;7.146;2022-07-04T14:24:00;30.50;31.50
53314;DHT22;39202;51.468;7.146;2022-07-04T14:29:02;30.50;31.10
53314;DHT22;39202;51.468;7.146;2022-07-04T14:34:03;30.50;31.60
53314;DHT22;39202;51.468;7.146;2022-07-04T14:39:09;30.60;31.60
53314;DHT22;39202;51.468;7.146;2022-07-04T14:44:11;30.60;31.60
53314;DHT22;39202;51.468;7.146;2022-07-04T14:49:12;30.60;31.40
53314;DHT22;39202;51.468;7.146;2022-07-04T14:54:15;30.60;31.60
53314;DHT22;39202;51.468;7.146;2022-07-04T14:59:17;30.60;31.60
53314;DHT22;39202;51.468;7.146;2022-07-04T15:04:19;30.60;31.80
53314;DHT22;39202;51.468;7.146;2022-07-04T15:09:22;30.60;31.80
53314;DHT22;39202;51.468;7.146;2022-07-04T15:14:24;30.60;32.00
53314;DHT22;39202;51.468;7.146;2022-07-04T15:19:25;30.60;32.00
53314;DHT22;39202;51.468;7.146;2022-07-04T15:24:28;30.60;32.00
53314;DHT22;39202;51.468;7.146;2022-07-04T15:29:31;30.60;32.10
53314;DHT22;39202;51.468;7.146;2022-07-04T15:34:33;30.70;32.20
53314;DHT22;39202;51.468;7.146;2022-07-04T15:39:36;30.70;32.20
53314;DHT22;39202;51.468;7.146;2022-07-04T15:44:38;30.70;32.20
53314;DHT22;39202;51.468;7.146;2022-07-04T15:49:40;30.70;32.20
53314;DHT22;39202;51.468;7.146;2022-07-04T15:54:43;30.70;32.20
53314;DHT22;39202;51.468;7.146;2022-07-04T15:59:45;30.70;32.30
53314;DHT22;39202;51.468;7.146;2022-07-04T16:04:47;30.70;32.30
53314;DHT22;39202;51.468;7.146;2022-07-04T16:09:50;30.70;32.30
53314;DHT22;39202;51.468;7.146;2022-07-04T16:14:51;30.80;32.40
53314;DHT22;39202;51.468;7.146;2022-07-04T16:19:53;30.80;32.40
53314;DHT22;39202;51.468;7.146;2022-07-04T16:24:56;30.80;32.50
53314;DHT22;39202;51.468;7.146;2022-07-04T16:29:59;30.80;32.50
53314;DHT22;39202;51.468;7.146;2022-07-04T16:35:01;30.80;32.50
53314;DHT22;39202;51.468;7.146;2022-07-04T16:40:05;30.80;32.50
53314;DHT22;39202;51.468;7.146;2022-07-04T16:45:08;30.80;32.60
53314;DHT22;39202;51.468;7.146;2022-07-04T16:50:10;30.80;32.60
53314;DHT22;39202;51.468;7.146;2022-07-04T16:55:13;30.80;32.60
53314;DHT22;39202;51.468;7.146;2022-07-04T17:00:15;30.80;32.60
53314;DHT22;39202;51.468;7.146;2022-07-04T17:05:17;30.80;32.60
53314;DHT22;39202;51.468;7.146;2022-07-04T17:10:20;30.80;32.70
53314;DHT22;39202;51.468;7.146;2022-07-04T17:15:22;30.80;32.70
53314;DHT22;39202;51.468;7.146;2022-07-04T17:20:24;30.80;32.70
53314;DHT22;39202;51.468;7.146;2022-07-04T17:25:27;30.80;32.70
53314;DHT22;39202;51.468;7.146;2022-07-04T17:30:28;30.80;32.80
53314;DHT22;39202;51.468;7.146;2022-07-04T17:35:30;30.90;32.90
53314;DHT22;39202;51.468;7.146;2022-07-04T17:40:33;30.90;32.90
53314;DHT22;39202;51.468;7.146;2022-07-04T17:45:36;30.90;32.90
53314;DHT22;39202;51.468;7.146;2022-07-04T17:50:38;30.90;32.90
53314;DHT22;39202;51.468;7.146;2022-07-04T17:55:41;30.90;32.90
53314;DHT22;39202;51.468;7.146;2022-07-04T18:00:43;31.00;33.10
53314;DHT22;39202;51.468;7.146;2022-07-04T18:05:45;30.90;33.00
53314;DHT22;39202;51.468;7.146;2022-07-04T18:10:48;30.90;33.00
53314;DHT22;39202;51.468;7.146;2022-07-04T18:15:49;30.90;33.10
53314;DHT22;39202;51.468;7.146;2022-07-04T18:20:51;30.90;33.00
53314;DHT22;39202;51.468;7.146;2022-07-04T18:25:55;30.90;33.00
53314;DHT22;39202;51.468;7.146;2022-07-04T18:31:02;30.90;33.10
53314;DHT22;39202;51.468;7.146;2022-07-04T18:36:05;30.90;33.20
53314;DHT22;39202;51.468;7.146;2022-07-04T18:41:09;30.90;33.20
53314;DHT22;39202;51.468;7.146;2022-07-04T18:46:36;30.90;33.20
53314;DHT22;39202;51.468;7.146;2022-07-04T18:51:38;30.90;33.20
53314;DHT22;39202;51.468;7.146;2022-07-04T18:56:42;30.90;33.20
53314;DHT22;39202;51.468;7.146;2022-07-04T19:01:44;30.90;33.30
53314;DHT22;39202;51.468;7.146;2022-07-04T19:06:46;30.80;33.20
53314;DHT22;39202;51.468;7.146;2022-07-04T19:11:49;30.80;33.20
53314;DHT22;39202;51.468;7.146;2022-07-04T19:16:51;30.80;33.30
53314;DHT22;39202;51.468;7.146;2022-07-04T19:21:52;30.80;33.30
53314;DHT22;39202;51.468;7.146;2022-07-04T19:26:56;30.80;33.30
53314;DHT22;39202;51.468;7.146;2022-07-04T19:31:57;30.80;33.30
53314;DHT22;39202;51.468;7.146;2022-07-04T19:37:00;30.80;33.30
53314;DHT22;39202;51.468;7.146;2022-07-04T19:42:03;30.90;33.40
53314;DHT22;39202;51.468;7.146;2022-07-04T19:47:05;30.80;33.30
53314;DHT22;39202;51.468;7.146;2022-07-04T19:52:07;30.80;33.40
53314;DHT22;39202;51.468;7.146;2022-07-04T19:57:29;30.80;33.40
53314;DHT22;39202;51.468;7.146;2022-07-04T20:02:31;30.80;33.50
53314;DHT22;39202;51.468;7.146;2022-07-04T20:07:33;30.80;33.50
53314;DHT22;39202;51.468;7.146;2022-07-04T20:12:36;30.80;33.50
53314;DHT22;39202;51.468;7.146;2022-07-04T20:17:38;30.80;32.90
53314;DHT22;39202;51.468;7.146;2022-07-04T20:22:43;30.80;33.60
53314;DHT22;39202;51.468;7.146;2022-07-04T20:27:46;30.80;33.50
53314;DHT22;39202;51.468;7.146;2022-07-04T20:32:49;30.80;33.50
53314;DHT22;39202;51.468;7.146;2022-07-04T20:37:50;30.80;33.50
53314;DHT22;39202;51.468;7.146;2022-07-04T20:42:53;30.80;33.60
53314;DHT22;39202;51.468;7.146;2022-07-04T20:47:55;30.70;33.60
53314;DHT22;39202;51.468;7.146;2022-07-04T20:52:57;30.70;33.70
53314;DHT22;39202;51.468;7.146;2022-07-04T20:58:00;30.70;33.70
53314;DHT22;39202;51.468;7.146;2022-07-04T21:03:02;30.70;33.80
53314;DHT22;39202;51.468;7.146;2022-07-04T21:08:04;30.70;33.80
53314;DHT22;39202;51.468;7.146;2022-07-04T21:13:07;30.70;33.90
53314;DHT22;39202;51.468;7.146;2022-07-04T21:18:10;30.60;33.90
53314;DHT22;39202;51.468;7.146;2022-07-04T21:23:11;30.60;33.90
53314;DHT22;39202;51.468;7.146;2022-07-04T21:28:14;30.60;33.90
53314;DHT22;39202;51.468;7.146;2022-07-04T21:33:16;30.60;34.00
53314;DHT22;39202;51.468;7.146;2022-07-04T21:38:18;30.60;34.00
53314;DHT22;39202;51.468;7.146;2022-07-04T21:43:21;30.60;34.10
53314;DHT22;39202;51.468;7.146;2022-07-04T21:48:23;30.60;34.10
53314;DHT22;39202;51.468;7.146;2022-07-04T21:53:25;30.60;34.10
53314;DHT22;39202;51.468;7.146;2022-07-04T21:58:28;30.60;34.20
53314;DHT22;39202;51.468;7.146;2022-07-04T22:03:30;30.50;34.20
53314;DHT22;39202;51.468;7.146;2022-07-04T22:08:31;30.50;34.20
53314;DHT22;39202;51.468;7.146;2022-07-04T22:13:35;30.60;34.30
53314;DHT22;39202;51.468;7.146;2022-07-04T22:18:36;30.50;34.30
53314;DHT22;39202;51.468;7.146;2022-07-04T22:23:39;30.50;34.20
53314;DHT22;39202;51.468;7.146;2022-07-04T22:28:42;30.50;34.30
53314;DHT22;39202;51.468;7.146;2022-07-04T22:33:44;30.50;34.30
53314;DHT22;39202;51.468;7.146;2022-07-04T22:38:46;30.50;34.40
53314;DHT22;39202;51.468;7.146;2022-07-04T22:43:49;30.50;34.40
53314;DHT22;39202;51.468;7.146;2022-07-04T22:48:50;30.50;34.40
53314;DHT22;39202;51.468;7.146;2022-07-04T22:53:52;30.50;34.40
53314;DHT22;39202;51.468;7.146;2022-07-04T22:59:12;30.40;34.40
53314;DHT22;39202;51.468;7.146;2022-07-04T23:04:14;30.40;34.50
53314;DHT22;39202;51.468;7.146;2022-07-04T23:09:16;30.40;34.40
53314;DHT22;39202;51.468;7.146;2022-07-04T23:14:19;30.40;34.50
53314;DHT22;39202;51.468;7.146;2022-07-04T23:19:21;30.40;34.50
53314;DHT22;39202;51.468;7.146;2022-07-04T23:24:23;30.50;34.60
53314;DHT22;39202;51.468;7.146;2022-07-04T23:29:26;30.40;34.50
53314;DHT22;39202;51.468;7.146;2022-07-04T23:34:28;30.40;34.60
53314;DHT22;39202;51.468;7.146;2022-07-04T23:39:30;30.40;34.50
53314;DHT22;39202;51.468;7.146;2022-07-04T23:44:33;30.40;34.50
53314;DHT22;39202;51.468;7.146;2022-07-04T23:49:35;30.40;34.60
53314;DHT22;39202;51.468;7.146;2022-07-04T23:54:36;30.40;34.60
53314;DHT22;39202;51.468;7.146;2022-07-04T23:59:39;30.40;34.60
